Terminal Aerodrome Forecast
Issued by NWS

Home | Current Version | Previous Version | Text Only | Print | Product List | Glossary On
Versions: 1 2 3 4 5 6 7 8 9 10 11 12 13 14 15 16
000
FTUS45 KABQ 290538
TAFLVS
TAF
KLVS 290538Z 2906/3006 03007KT P6SM SCT035 BKN100
     FM290900 02007KT P6SM BKN015
     FM291600 12008KT P6SM SCT020 BKN080
     FM291900 12009KT P6SM VCTS SCT060CB BKN080
     FM300200 02007KT P6SM -SHRA BKN060
     FM300500 02005KT P6SM VCSH BKN005=

USA.gov is the U.S. government's official web portal to all federal, state and local government web resources and services.